createdAt,value
2023-03-16T00:02:44.416Z,43.89
2023-03-16T00:05:47.152Z,43.82
2023-03-16T00:08:49.918Z,43.89
2023-03-16T00:11:52.283Z,44.27
2023-03-16T00:14:55.017Z,44.68
2023-03-16T00:17:57.406Z,45.27
2023-03-16T00:21:02.326Z,44.67
2023-03-16T00:24:04.789Z,45.31
2023-03-16T00:27:07.111Z,45.54
2023-03-16T00:30:11.409Z,45.30
2023-03-16T00:33:14.196Z,45.59
2023-03-16T00:36:16.899Z,46.32
2023-03-16T00:39:18.894Z,46.38
2023-03-16T00:42:27.531Z,46.33
2023-03-16T00:45:29.914Z,46.52
2023-03-16T00:48:34.805Z,46.80
2023-03-16T00:51:37.012Z,47.69
2023-03-16T00:54:39.233Z,48.68
2023-03-16T00:57:41.867Z,49.12
2023-03-16T01:00:43.923Z,49.18
2023-03-16T01:03:46.664Z,48.67
2023-03-16T01:06:52.032Z,47.97
2023-03-16T01:09:54.141Z,48.04
2023-03-16T01:12:56.346Z,48.08
2023-03-16T01:15:59.665Z,48.00
2023-03-16T01:19:02.184Z,47.89
2023-03-16T01:22:06.551Z,47.94
2023-03-16T01:25:12.276Z,48.26
2023-03-16T01:28:14.422Z,48.62
2023-03-16T01:31:17.105Z,48.07
2023-03-16T01:34:19.269Z,48.24
2023-03-16T01:37:22.647Z,48.54
2023-03-16T01:40:24.694Z,48.29
2023-03-16T01:43:30.888Z,48.60
2023-03-16T01:46:33.196Z,48.52
2023-03-16T01:49:38.824Z,48.28
2023-03-16T01:52:40.966Z,48.27
2023-03-16T01:55:43.793Z,48.75
2023-03-16T01:58:47.098Z,48.86
2023-03-16T02:01:52.051Z,48.59
2023-03-16T02:05:42.515Z,48.49
2023-03-16T02:08:47.269Z,48.88
2023-03-16T02:11:50.325Z,49.19
2023-03-16T02:14:52.877Z,48.86
2023-03-16T02:17:58.221Z,48.53
2023-03-16T02:21:29.133Z,49.19
2023-03-16T02:24:31.571Z,49.53
2023-03-16T02:28:00.956Z,49.24
2023-03-16T02:31:05.119Z,50.27
2023-03-16T02:34:07.893Z,50.25
2023-03-16T02:37:10.469Z,50.01
2023-03-16T02:40:30.455Z,50.11
2023-03-16T02:43:36.412Z,50.90
2023-03-16T02:46:39.891Z,51.00
2023-03-16T02:50:06.623Z,51.05
2023-03-16T02:53:09.029Z,50.14
2023-03-16T02:56:11.582Z,50.25
2023-03-16T02:59:13.951Z,51.19
2023-03-16T03:02:15.997Z,50.81
2023-03-16T03:05:18.360Z,51.34
2023-03-16T03:08:22.562Z,50.82
2023-03-16T03:11:24.619Z,51.36
2023-03-16T03:14:28.600Z,51.17
2023-03-16T03:17:33.161Z,51.38
2023-03-16T03:20:35.484Z,51.84
2023-03-16T03:23:37.838Z,51.58
2023-03-16T03:26:39.826Z,52.02
2023-03-16T03:29:41.936Z,52.17
2023-03-16T03:32:44.843Z,52.19
2023-03-16T03:35:47.245Z,52.23
2023-03-16T03:38:54.935Z,52.05
2023-03-16T03:41:57.099Z,52.55
2023-03-16T03:44:59.204Z,52.59
2023-03-16T03:48:01.577Z,52.46
2023-03-16T03:51:04.284Z,52.94
2023-03-16T03:54:06.790Z,52.55
2023-03-16T03:57:09.962Z,53.12
2023-03-16T04:00:13.806Z,53.18
2023-03-16T04:03:17.819Z,52.97
2023-03-16T04:06:20.008Z,53.21
2023-03-16T04:09:22.680Z,53.44
2023-03-16T04:12:24.984Z,53.90
2023-03-16T04:15:27.438Z,53.63
2023-03-16T04:18:30.518Z,54.23
2023-03-16T04:21:32.679Z,53.51
2023-03-16T04:24:35.916Z,53.54
2023-03-16T04:27:38.506Z,53.23
2023-03-16T04:30:43.166Z,53.53
2023-03-16T04:33:45.891Z,53.60
2023-03-16T04:36:48.774Z,54.20
2023-03-16T04:39:51.132Z,53.89
2023-03-16T04:42:53.390Z,53.98
2023-03-16T04:45:56.185Z,54.21
2023-03-16T04:48:58.847Z,54.47
2023-03-16T04:52:03.217Z,53.94
2023-03-16T04:55:06.424Z,54.67
2023-03-16T04:58:11.454Z,54.52
2023-03-16T05:01:14.221Z,54.08
2023-03-16T05:04:19.597Z,54.42
2023-03-16T05:07:22.398Z,54.32
2023-03-16T05:10:25.268Z,54.10
2023-03-16T05:13:31.161Z,54.22
2023-03-16T05:16:33.977Z,54.28
2023-03-16T05:19:37.533Z,53.82
2023-03-16T05:22:45.261Z,54.04
2023-03-16T05:25:48.721Z,54.50
2023-03-16T05:28:51.086Z,54.05
2023-03-16T05:31:54.334Z,53.85
2023-03-16T05:35:00.913Z,54.00
2023-03-16T05:38:04.581Z,53.79
2023-03-16T05:41:07.872Z,54.00
2023-03-16T05:44:13.524Z,54.38
2023-03-16T05:47:15.574Z,53.57
2023-03-16T05:50:19.630Z,53.78
2023-03-16T05:53:30.831Z,53.94
2023-03-16T05:56:36.465Z,53.48
2023-03-16T05:59:38.624Z,52.35
2023-03-16T06:02:42.441Z,51.88
2023-03-16T06:05:44.566Z,51.75
2023-03-16T06:08:46.930Z,51.46
2023-03-16T06:11:51.414Z,51.08
2023-03-16T06:14:53.885Z,50.78
2023-03-16T06:17:56.140Z,50.91
2023-03-16T06:20:58.409Z,49.90
2023-03-16T06:24:01.044Z,50.20
2023-03-16T06:27:05.341Z,46.47
2023-03-16T06:30:12.146Z,43.45
2023-03-16T06:33:14.660Z,44.10
2023-03-16T06:36:17.559Z,46.64
2023-03-16T06:39:20.331Z,47.40
2023-03-16T06:42:24.014Z,47.86
2023-03-16T06:45:26.059Z,48.06
2023-03-16T06:48:28.665Z,47.09
2023-03-16T06:51:32.315Z,46.84
2023-03-16T06:54:35.381Z,46.82
2023-03-16T06:57:37.632Z,43.05
2023-03-16T07:00:40.034Z,38.32
2023-03-16T07:03:42.960Z,40.00
2023-03-16T07:06:45.035Z,43.14
2023-03-16T07:09:47.073Z,44.97
2023-03-16T07:12:50.451Z,45.41
2023-03-16T07:15:52.922Z,45.68
2023-03-16T07:18:55.562Z,44.56
2023-03-16T07:21:59.563Z,45.21
2023-03-16T07:25:05.352Z,45.46
2023-03-16T07:28:08.053Z,45.09
2023-03-16T07:31:11.337Z,44.58
2023-03-16T07:34:14.429Z,44.52
2023-03-16T07:37:18.337Z,44.58
2023-03-16T07:40:24.384Z,43.86
2023-03-16T07:43:27.047Z,44.38
2023-03-16T07:46:29.649Z,43.88
2023-03-16T07:49:41.366Z,43.35
2023-03-16T07:52:46.408Z,43.64
2023-03-16T07:55:49.892Z,43.75
2023-03-16T07:58:52.921Z,43.60
2023-03-16T08:01:55.653Z,43.86
2023-03-16T08:05:05.003Z,43.95
2023-03-16T08:08:09.895Z,43.49
2023-03-16T08:11:25.553Z,44.30
2023-03-16T08:14:40.110Z,43.79
2023-03-16T08:17:47.637Z,43.92
2023-03-16T08:21:04.739Z,44.53
2023-03-16T08:24:19.180Z,44.28
2023-03-16T08:27:22.452Z,43.45
2023-03-16T08:34:18.319Z,43.97
2023-03-16T08:37:29.410Z,43.46
2023-03-16T08:40:37.379Z,43.57
2023-03-16T08:43:58.514Z,43.40
2023-03-16T08:47:02.145Z,42.60
2023-03-16T08:50:20.778Z,42.76
2023-03-16T08:53:37.342Z,42.00
2023-03-16T08:56:45.572Z,42.22
2023-03-16T08:59:48.126Z,41.07
2023-03-16T09:03:17.005Z,41.13
2023-03-16T09:06:23.112Z,41.13
2023-03-16T09:09:27.741Z,40.79
2023-03-16T09:12:41.145Z,40.95
2023-03-16T09:15:44.773Z,39.86
2023-03-16T09:18:57.459Z,39.58
2023-03-16T09:22:01.120Z,39.24
2023-03-16T09:25:06.967Z,39.50
2023-03-16T09:28:09.416Z,39.35
2023-03-16T09:31:19.695Z,39.61
2023-03-16T09:37:27.776Z,40.14
2023-03-16T09:40:30.958Z,40.27
2023-03-16T09:43:58.451Z,40.62
2023-03-16T09:47:07.686Z,40.13
2023-03-16T09:50:21.635Z,39.56
2023-03-16T09:53:45.434Z,39.89
2023-03-16T09:56:54.261Z,39.24
2023-03-16T10:00:27.441Z,38.18
2023-03-16T10:03:46.098Z,39.30
2023-03-16T10:07:18.986Z,39.39
2023-03-16T10:10:31.862Z,38.58
2023-03-16T10:14:26.462Z,37.75
2023-03-16T10:17:54.264Z,37.27
2023-03-16T10:20:59.417Z,37.09
2023-03-16T10:24:05.465Z,36.23
2023-03-16T10:27:22.154Z,35.76
2023-03-16T10:30:33.516Z,36.38
2023-03-16T10:33:39.919Z,35.55
2023-03-16T10:36:46.112Z,35.08
2023-03-16T10:39:54.450Z,35.13
2023-03-16T10:42:58.195Z,35.71
2023-03-16T10:46:05.329Z,34.58
2023-03-16T10:49:27.661Z,34.63
2023-03-16T10:52:40.763Z,33.89
2023-03-16T10:55:46.006Z,33.83
2023-03-16T11:02:43.196Z,32.87
2023-03-16T11:11:29.017Z,32.88
2023-03-16T11:14:41.958Z,32.66
2023-03-16T11:17:56.493Z,31.84
2023-03-16T11:21:46.290Z,32.01
2023-03-16T11:30:11.557Z,30.91
2023-03-16T11:33:15.736Z,30.48
2023-03-16T11:36:55.684Z,31.23
2023-03-16T11:40:31.859Z,30.27
2023-03-16T11:43:55.777Z,30.05
2023-03-16T11:47:07.319Z,29.23
2023-03-16T11:55:19.142Z,28.58
2023-03-16T11:58:49.802Z,28.80
2023-03-16T12:02:33.928Z,29.15
2023-03-16T12:06:05.663Z,28.86
2023-03-16T12:09:33.517Z,28.29
2023-03-16T12:17:42.225Z,28.07
2023-03-16T12:24:48.373Z,25.15
2023-03-16T12:27:59.437Z,24.81
2023-03-16T12:31:17.177Z,24.79
2023-03-16T12:34:46.322Z,24.30
2023-03-16T12:42:33.969Z,23.32
2023-03-16T12:46:07.308Z,22.04
2023-03-16T12:49:10.541Z,21.91
2023-03-16T12:52:14.964Z,21.76
2023-03-16T12:55:20.671Z,22.08
2023-03-16T12:58:26.304Z,22.14
2023-03-16T13:01:31.554Z,20.97
2023-03-16T13:04:42.010Z,21.16
2023-03-16T13:08:07.949Z,22.29
2023-03-16T13:11:23.756Z,22.23
2023-03-16T13:19:16.950Z,22.15
2023-03-16T13:32:17.037Z,22.49
2023-03-16T13:35:21.848Z,22.19
2023-03-16T13:38:38.532Z,21.95
2023-03-16T13:42:26.011Z,22.05
2023-03-16T13:45:34.358Z,22.19
2023-03-16T13:48:41.297Z,21.80
2023-03-16T13:51:49.025Z,22.30
2023-03-16T13:54:58.408Z,21.51
2023-03-16T13:58:02.314Z,21.55
2023-03-16T14:01:23.755Z,21.33
2023-03-16T14:04:35.499Z,21.20
2023-03-16T14:07:40.381Z,22.38
2023-03-16T14:15:53.183Z,22.62
2023-03-16T14:20:06.094Z,21.27
2023-03-16T14:26:48.413Z,22.27
2023-03-16T14:30:04.772Z,21.86
2023-03-16T14:33:27.230Z,21.08
2023-03-16T14:36:35.525Z,21.09
2023-03-16T14:39:40.597Z,21.20
2023-03-16T14:42:46.814Z,19.98
2023-03-16T14:45:48.807Z,18.98
2023-03-16T14:48:50.736Z,19.51
2023-03-16T14:51:56.052Z,19.19
2023-03-16T14:54:59.291Z,19.06
2023-03-16T14:58:01.823Z,20.30
2023-03-16T15:01:06.414Z,20.77
2023-03-16T15:04:19.534Z,21.47
2023-03-16T15:07:32.311Z,21.38
2023-03-16T15:10:36.123Z,21.40
2023-03-16T15:13:40.706Z,21.64
2023-03-16T15:16:43.588Z,21.06
2023-03-16T15:19:45.494Z,20.57
2023-03-16T15:22:50.013Z,20.04
2023-03-16T15:25:57.369Z,21.10
2023-03-16T15:28:59.629Z,20.82
2023-03-16T15:32:01.932Z,20.51
2023-03-16T15:35:04.374Z,20.79
2023-03-16T15:38:14.984Z,20.72
2023-03-16T15:41:17.356Z,20.36
2023-03-16T15:44:22.974Z,20.94
2023-03-16T15:47:24.748Z,20.45
2023-03-16T15:50:27.345Z,20.04
2023-03-16T15:53:36.041Z,20.31
2023-03-16T15:56:53.751Z,20.21
2023-03-16T15:59:56.577Z,20.05
2023-03-16T16:02:59.780Z,19.95
2023-03-16T16:06:02.242Z,20.27
2023-03-16T16:09:05.596Z,20.05
2023-03-16T16:12:13.524Z,20.02
2023-03-16T16:15:21.770Z,20.55
2023-03-16T16:18:35.174Z,20.75
2023-03-16T16:21:37.068Z,21.11
2023-03-16T16:24:39.714Z,21.15
2023-03-16T16:27:41.813Z,21.07
2023-03-16T16:30:45.277Z,21.12
2023-03-16T16:33:47.996Z,21.50
2023-03-16T16:36:51.698Z,21.06
2023-03-16T16:39:53.801Z,21.65
2023-03-16T16:42:57.536Z,21.63
2023-03-16T16:46:04.600Z,21.51
2023-03-16T16:49:17.861Z,21.40
2023-03-16T16:52:19.972Z,21.14
2023-03-16T16:55:23.098Z,21.54
2023-03-16T16:58:26.018Z,21.45
2023-03-16T17:01:35.117Z,21.60
2023-03-16T17:04:37.396Z,21.96
2023-03-16T17:07:39.852Z,22.25
2023-03-16T17:10:44.935Z,21.99
2023-03-16T17:13:47.516Z,22.13
2023-03-16T17:16:53.506Z,22.47
2023-03-16T17:19:55.505Z,22.90
2023-03-16T17:22:58.800Z,22.70
2023-03-16T17:26:11.804Z,23.32
2023-03-16T17:29:28.076Z,23.79
2023-03-16T17:32:31.504Z,23.21
2023-03-16T17:35:33.685Z,23.68
2023-03-16T17:38:36.287Z,23.80
2023-03-16T17:41:38.396Z,24.44
2023-03-16T17:44:44.984Z,25.55
2023-03-16T17:47:48.393Z,25.87
2023-03-16T17:50:51.616Z,26.03
2023-03-16T17:53:54.713Z,26.17
2023-03-16T17:56:57.221Z,26.00
2023-03-16T18:00:04.803Z,26.22
2023-03-16T18:03:17.754Z,26.14
2023-03-16T18:06:23.975Z,26.75
2023-03-16T18:09:26.055Z,26.99
2023-03-16T18:12:28.460Z,27.38
2023-03-16T18:15:36.811Z,29.40
2023-03-16T18:18:43.157Z,29.64
2023-03-16T18:21:45.974Z,30.28
2023-03-16T18:24:50.221Z,31.34
2023-03-16T18:27:53.469Z,32.03
2023-03-16T18:30:58.580Z,32.65
2023-03-16T18:34:05.967Z,32.62
2023-03-16T18:37:17.269Z,33.38
2023-03-16T18:40:21.940Z,32.94
2023-03-16T18:43:26.735Z,33.36
2023-03-16T18:46:37.388Z,33.32
2023-03-16T18:49:40.036Z,33.22
2023-03-16T18:52:42.270Z,35.71
2023-03-16T18:55:45.131Z,32.90
2023-03-16T18:58:48.728Z,30.38
2023-03-16T19:01:52.299Z,29.36
2023-03-16T19:05:02.216Z,30.32
2023-03-16T19:08:05.116Z,30.74
2023-03-16T19:11:08.233Z,31.50
2023-03-16T19:14:20.395Z,32.90
2023-03-16T19:17:23.689Z,33.20
2023-03-16T19:20:29.244Z,32.72
2023-03-16T19:23:36.278Z,33.84
2023-03-16T19:26:39.165Z,34.32
2023-03-16T19:29:41.540Z,34.09
2023-03-16T19:32:46.495Z,34.40
2023-03-16T19:35:52.194Z,34.95
2023-03-16T19:38:56.528Z,35.23
2023-03-16T19:42:00.276Z,35.39
2023-03-16T19:45:04.411Z,35.95
2023-03-16T19:48:32.255Z,35.97
2023-03-16T19:51:34.759Z,36.03
2023-03-16T19:54:39.791Z,36.41
2023-03-16T19:57:42.618Z,36.55
2023-03-16T20:00:46.312Z,36.69
2023-03-16T20:03:51.734Z,36.43
2023-03-16T20:06:54.731Z,36.69
2023-03-16T20:09:57.584Z,37.80
2023-03-16T20:13:01.713Z,38.20
2023-03-16T20:16:04.018Z,37.53
2023-03-16T20:19:13.740Z,38.35
2023-03-16T20:22:22.450Z,38.45
2023-03-16T20:25:30.351Z,38.34
2023-03-16T20:28:36.361Z,38.92
2023-03-16T20:31:38.819Z,39.39
2023-03-16T20:34:41.047Z,38.91
2023-03-16T20:37:43.148Z,39.46
2023-03-16T20:40:47.629Z,38.75
2023-03-16T20:43:50.043Z,40.05
2023-03-16T20:46:52.330Z,39.40
2023-03-16T20:49:57.632Z,39.87
2023-03-16T20:53:00.928Z,40.27
2023-03-16T20:56:03.308Z,40.19
2023-03-16T20:59:05.413Z,40.36
2023-03-16T21:02:34.257Z,40.47
2023-03-16T21:05:36.585Z,40.48
2023-03-16T21:08:38.777Z,40.21
2023-03-16T21:11:43.748Z,40.52
2023-03-16T21:14:46.317Z,40.68
2023-03-16T21:18:01.948Z,41.07
2023-03-16T21:21:03.896Z,40.94
2023-03-16T21:24:06.967Z,41.56
2023-03-16T21:27:18.652Z,41.73
2023-03-16T21:30:29.668Z,41.73
2023-03-16T21:33:35.287Z,41.86
2023-03-16T21:36:37.353Z,41.94
2023-03-16T21:39:39.476Z,41.44
2023-03-16T21:42:41.498Z,42.02
2023-03-16T21:45:44.905Z,42.65
2023-03-16T21:48:55.872Z,43.17
2023-03-16T21:51:57.820Z,42.29
2023-03-16T21:55:00.707Z,42.26
2023-03-16T21:58:02.833Z,42.87
2023-03-16T22:01:04.735Z,42.18
2023-03-16T22:04:17.740Z,42.52
2023-03-16T22:07:20.837Z,41.65
2023-03-16T22:10:23.154Z,42.23
2023-03-16T22:13:29.573Z,42.88
2023-03-16T22:16:34.944Z,43.00
2023-03-16T22:19:37.091Z,43.20
2023-03-16T22:22:39.153Z,42.69
2023-03-16T22:25:40.996Z,43.36
2023-03-16T22:28:43.336Z,42.52
2023-03-16T22:31:47.170Z,42.52
2023-03-16T22:34:53.727Z,42.46
2023-03-16T22:37:57.432Z,42.10
2023-03-16T22:41:00.170Z,42.72
2023-03-16T22:44:02.264Z,42.89
2023-03-16T22:47:07.007Z,43.06
2023-03-16T22:50:15.010Z,44.62
2023-03-16T22:53:35.877Z,42.94
2023-03-16T22:56:46.948Z,43.24
2023-03-16T22:59:50.480Z,44.50
2023-03-16T23:02:52.549Z,44.21
2023-03-16T23:05:54.669Z,42.59
2023-03-16T23:08:56.939Z,42.67
2023-03-16T23:12:01.111Z,43.08
2023-03-16T23:15:03.511Z,43.24
2023-03-16T23:18:15.221Z,44.01
2023-03-16T23:21:20.810Z,43.45
2023-03-16T23:24:23.787Z,43.43
2023-03-16T23:27:25.620Z,42.93
2023-03-16T23:30:28.521Z,43.63
2023-03-16T23:33:31.575Z,44.49
2023-03-16T23:36:33.619Z,44.07
2023-03-16T23:39:35.374Z,44.10
2023-03-16T23:42:37.182Z,45.10
2023-03-16T23:45:45.378Z,44.88
2023-03-16T23:48:49.195Z,44.30
2023-03-16T23:51:52.553Z,43.65
2023-03-16T23:55:01.420Z,44.31
2023-03-16T23:58:03.408Z,44.28
